Elkton, Oregon
Current Conditions -  °F | °C
As of 4:53 AM on Friday 24 Oct 2014 (Local Time) from KRBG Reporting Station
Overcast Overcast  
Wind Chill: 54°   Ceiling: 1100
Heat Index: 54°   Visibility: 9mi
Dew Point: 51°   Wind: 0mph
Humidity: 90%   Direction: NA
Pressure: 29.98"   Gusts: NA
Location:  43.64°N, 123.57°W
Report Text: KRBG 241153Z AUTO 00000KT 9SM BKN011 OVC120 12/11 A2998 RMK AO2 RAE14 SLP153 P0000 60001 70005 T01220106 10128 20117 58012
Loading
Personal Weather Stations






























Interactive Weather Map
Tropical Storm Tracking
New forecast layout! Learn more

10-Day Weather Forecast

Advertisements
Track Severe Weather on mobile